sensor_id;sensor_type;location;lat;lon;timestamp;temperature;humidity
20827;DHT22;10574;52.508;13.236;2024-02-26T00:00:27;2.60;99.90
20827;DHT22;10574;52.508;13.236;2024-02-26T00:02:56;2.60;99.90
20827;DHT22;10574;52.508;13.236;2024-02-26T00:05:23;2.60;99.90
20827;DHT22;10574;52.508;13.236;2024-02-26T00:07:51;2.60;99.90
20827;DHT22;10574;52.508;13.236;2024-02-26T00:10:19;2.60;99.90
20827;DHT22;10574;52.508;13.236;2024-02-26T00:12:47;2.60;99.90
20827;DHT22;10574;52.508;13.236;2024-02-26T00:15:15;2.60;99.90
20827;DHT22;10574;52.508;13.236;2024-02-26T00:17:43;2.70;99.90
20827;DHT22;10574;52.508;13.236;2024-02-26T00:20:11;2.60;99.90
20827;DHT22;10574;52.508;13.236;2024-02-26T00:22:40;2.60;99.90
20827;DHT22;10574;52.508;13.236;2024-02-26T00:25:08;2.60;99.90
20827;DHT22;10574;52.508;13.236;2024-02-26T00:27:36;2.60;99.90
20827;DHT22;10574;52.508;13.236;2024-02-26T00:30:04;2.50;99.90
20827;DHT22;10574;52.508;13.236;2024-02-26T00:32:33;2.50;99.90
20827;DHT22;10574;52.508;13.236;2024-02-26T00:35:00;2.40;99.90
20827;DHT22;10574;52.508;13.236;2024-02-26T00:37:29;2.40;99.90
20827;DHT22;10574;52.508;13.236;2024-02-26T00:39:57;2.30;99.90
20827;DHT22;10574;52.508;13.236;2024-02-26T00:42:25;2.30;99.90
20827;DHT22;10574;52.508;13.236;2024-02-26T00:44:53;2.20;99.90
20827;DHT22;10574;52.508;13.236;2024-02-26T00:47:21;2.20;99.90
20827;DHT22;10574;52.508;13.236;2024-02-26T00:49:49;2.20;99.90
20827;DHT22;10574;52.508;13.236;2024-02-26T00:52:16;2.10;99.90
20827;DHT22;10574;52.508;13.236;2024-02-26T00:54:45;2.10;99.90
20827;DHT22;10574;52.508;13.236;2024-02-26T00:57:13;2.10;99.90
20827;DHT22;10574;52.508;13.236;2024-02-26T00:59:41;2.20;99.90
20827;DHT22;10574;52.508;13.236;2024-02-26T01:02:09;2.10;99.90
20827;DHT22;10574;52.508;13.236;2024-02-26T01:04:37;2.10;99.90
20827;DHT22;10574;52.508;13.236;2024-02-26T01:07:04;2.00;99.90
20827;DHT22;10574;52.508;13.236;2024-02-26T01:09:32;2.10;99.90
20827;DHT22;10574;52.508;13.236;2024-02-26T01:12:00;2.00;99.90
20827;DHT22;10574;52.508;13.236;2024-02-26T01:14:29;2.00;99.90
20827;DHT22;10574;52.508;13.236;2024-02-26T01:16:57;2.00;99.90
20827;DHT22;10574;52.508;13.236;2024-02-26T01:19:24;2.00;99.90
20827;DHT22;10574;52.508;13.236;2024-02-26T01:21:52;2.00;99.90
20827;DHT22;10574;52.508;13.236;2024-02-26T01:24:20;2.00;99.90
20827;DHT22;10574;52.508;13.236;2024-02-26T01:26:48;2.00;99.90
20827;DHT22;10574;52.508;13.236;2024-02-26T01:29:16;1.90;99.90
20827;DHT22;10574;52.508;13.236;2024-02-26T01:31:44;1.90;99.90
20827;DHT22;10574;52.508;13.236;2024-02-26T01:34:11;1.90;99.90
20827;DHT22;10574;52.508;13.236;2024-02-26T01:36:40;1.90;99.90
20827;DHT22;10574;52.508;13.236;2024-02-26T01:39:08;1.90;99.90
20827;DHT22;10574;52.508;13.236;2024-02-26T01:41:37;1.90;99.90
20827;DHT22;10574;52.508;13.236;2024-02-26T01:44:06;1.90;99.90
20827;DHT22;10574;52.508;13.236;2024-02-26T01:46:34;1.90;99.90
20827;DHT22;10574;52.508;13.236;2024-02-26T01:49:03;1.90;99.90
20827;DHT22;10574;52.508;13.236;2024-02-26T01:51:32;2.00;99.90
20827;DHT22;10574;52.508;13.236;2024-02-26T01:54:02;2.00;99.90
20827;DHT22;10574;52.508;13.236;2024-02-26T01:56:30;2.00;99.90
20827;DHT22;10574;52.508;13.236;2024-02-26T01:58:59;2.00;99.90
20827;DHT22;10574;52.508;13.236;2024-02-26T02:01:29;2.00;99.90
20827;DHT22;10574;52.508;13.236;2024-02-26T02:03:59;1.90;99.90
20827;DHT22;10574;52.508;13.236;2024-02-26T02:06:27;2.00;99.90
20827;DHT22;10574;52.508;13.236;2024-02-26T02:08:56;2.00;99.90
20827;DHT22;10574;52.508;13.236;2024-02-26T02:11:24;1.90;99.90
20827;DHT22;10574;52.508;13.236;2024-02-26T02:13:52;1.90;99.90
20827;DHT22;10574;52.508;13.236;2024-02-26T02:16:19;1.90;99.90
20827;DHT22;10574;52.508;13.236;2024-02-26T02:18:47;1.80;99.90
20827;DHT22;10574;52.508;13.236;2024-02-26T02:21:15;1.80;99.90
20827;DHT22;10574;52.508;13.236;2024-02-26T02:23:43;1.80;99.90
20827;DHT22;10574;52.508;13.236;2024-02-26T02:26:16;1.80;99.90
20827;DHT22;10574;52.508;13.236;2024-02-26T02:28:44;1.70;99.90
20827;DHT22;10574;52.508;13.236;2024-02-26T02:31:12;1.70;99.90
20827;DHT22;10574;52.508;13.236;2024-02-26T02:33:40;1.70;99.90
20827;DHT22;10574;52.508;13.236;2024-02-26T02:36:08;1.70;99.90
20827;DHT22;10574;52.508;13.236;2024-02-26T02:38:50;1.70;99.90
20827;DHT22;10574;52.508;13.236;2024-02-26T02:41:18;1.80;99.90
20827;DHT22;10574;52.508;13.236;2024-02-26T02:43:46;1.70;99.90
20827;DHT22;10574;52.508;13.236;2024-02-26T02:46:15;1.80;99.90
20827;DHT22;10574;52.508;13.236;2024-02-26T02:48:44;1.70;99.90
20827;DHT22;10574;52.508;13.236;2024-02-26T02:51:12;1.70;99.90
20827;DHT22;10574;52.508;13.236;2024-02-26T02:53:40;1.70;99.90
20827;DHT22;10574;52.508;13.236;2024-02-26T02:56:07;1.70;99.90
20827;DHT22;10574;52.508;13.236;2024-02-26T02:58:35;1.70;99.90
20827;DHT22;10574;52.508;13.236;2024-02-26T03:01:03;1.70;99.90
20827;DHT22;10574;52.508;13.236;2024-02-26T03:03:31;1.70;99.90
20827;DHT22;10574;52.508;13.236;2024-02-26T03:05:59;1.60;99.90
20827;DHT22;10574;52.508;13.236;2024-02-26T03:08:27;1.60;99.90
20827;DHT22;10574;52.508;13.236;2024-02-26T03:10:54;1.60;99.90
20827;DHT22;10574;52.508;13.236;2024-02-26T03:13:22;1.60;99.90
20827;DHT22;10574;52.508;13.236;2024-02-26T03:15:50;1.60;99.90
20827;DHT22;10574;52.508;13.236;2024-02-26T03:18:18;1.70;99.90
20827;DHT22;10574;52.508;13.236;2024-02-26T03:20:46;1.80;99.90
20827;DHT22;10574;52.508;13.236;2024-02-26T03:23:14;1.90;99.90
20827;DHT22;10574;52.508;13.236;2024-02-26T03:25:44;2.00;99.90
20827;DHT22;10574;52.508;13.236;2024-02-26T03:28:13;2.00;99.90
20827;DHT22;10574;52.508;13.236;2024-02-26T03:30:42;2.10;99.90
20827;DHT22;10574;52.508;13.236;2024-02-26T03:33:10;2.10;99.90
20827;DHT22;10574;52.508;13.236;2024-02-26T03:35:38;2.10;99.90
20827;DHT22;10574;52.508;13.236;2024-02-26T03:38:06;2.10;99.90
20827;DHT22;10574;52.508;13.236;2024-02-26T03:40:33;2.10;99.90
20827;DHT22;10574;52.508;13.236;2024-02-26T03:43:01;2.10;99.90
20827;DHT22;10574;52.508;13.236;2024-02-26T03:45:31;2.10;99.90
20827;DHT22;10574;52.508;13.236;2024-02-26T03:47:59;2.10;99.90
20827;DHT22;10574;52.508;13.236;2024-02-26T03:50:27;2.10;99.90
20827;DHT22;10574;52.508;13.236;2024-02-26T03:52:54;2.10;99.90
20827;DHT22;10574;52.508;13.236;2024-02-26T03:55:24;2.10;99.90
20827;DHT22;10574;52.508;13.236;2024-02-26T03:57:52;2.10;99.90
20827;DHT22;10574;52.508;13.236;2024-02-26T04:00:20;2.10;99.90
20827;DHT22;10574;52.508;13.236;2024-02-26T04:02:48;2.10;99.90
20827;DHT22;10574;52.508;13.236;2024-02-26T04:05:16;2.10;99.90
20827;DHT22;10574;52.508;13.236;2024-02-26T04:07:43;2.10;99.90
20827;DHT22;10574;52.508;13.236;2024-02-26T04:10:11;2.10;99.90
20827;DHT22;10574;52.508;13.236;2024-02-26T04:12:40;2.10;99.90
20827;DHT22;10574;52.508;13.236;2024-02-26T04:15:08;2.10;99.90
20827;DHT22;10574;52.508;13.236;2024-02-26T04:17:37;2.10;99.90
20827;DHT22;10574;52.508;13.236;2024-02-26T04:20:06;2.10;99.90
20827;DHT22;10574;52.508;13.236;2024-02-26T04:22:34;2.20;99.90
20827;DHT22;10574;52.508;13.236;2024-02-26T04:25:02;2.20;99.90
20827;DHT22;10574;52.508;13.236;2024-02-26T04:27:29;2.20;99.90
20827;DHT22;10574;52.508;13.236;2024-02-26T04:29:57;2.20;99.90
20827;DHT22;10574;52.508;13.236;2024-02-26T04:32:25;2.10;99.90
20827;DHT22;10574;52.508;13.236;2024-02-26T04:34:53;2.10;99.90
20827;DHT22;10574;52.508;13.236;2024-02-26T04:37:21;2.10;99.90
20827;DHT22;10574;52.508;13.236;2024-02-26T04:39:49;2.10;99.90
20827;DHT22;10574;52.508;13.236;2024-02-26T04:42:17;2.20;99.90
20827;DHT22;10574;52.508;13.236;2024-02-26T04:44:45;2.20;99.90
20827;DHT22;10574;52.508;13.236;2024-02-26T04:47:13;2.20;99.90
20827;DHT22;10574;52.508;13.236;2024-02-26T04:49:41;2.20;99.90
20827;DHT22;10574;52.508;13.236;2024-02-26T04:52:08;2.20;99.90
20827;DHT22;10574;52.508;13.236;2024-02-26T04:54:36;2.20;99.90
20827;DHT22;10574;52.508;13.236;2024-02-26T04:57:04;2.20;99.90
20827;DHT22;10574;52.508;13.236;2024-02-26T04:59:32;2.20;99.90
20827;DHT22;10574;52.508;13.236;2024-02-26T05:01:59;2.20;99.90
20827;DHT22;10574;52.508;13.236;2024-02-26T05:04:27;2.20;99.90
20827;DHT22;10574;52.508;13.236;2024-02-26T05:06:55;2.20;99.90
20827;DHT22;10574;52.508;13.236;2024-02-26T05:09:23;2.20;99.90
20827;DHT22;10574;52.508;13.236;2024-02-26T05:11:51;2.10;99.90
20827;DHT22;10574;52.508;13.236;2024-02-26T05:14:19;2.20;99.90
20827;DHT22;10574;52.508;13.236;2024-02-26T05:16:47;2.20;99.90
20827;DHT22;10574;52.508;13.236;2024-02-26T05:19:15;2.20;99.90
20827;DHT22;10574;52.508;13.236;2024-02-26T05:21:43;2.10;99.90
20827;DHT22;10574;52.508;13.236;2024-02-26T05:24:10;2.10;99.90
20827;DHT22;10574;52.508;13.236;2024-02-26T05:26:38;2.20;99.90
20827;DHT22;10574;52.508;13.236;2024-02-26T05:29:06;2.20;99.90
20827;DHT22;10574;52.508;13.236;2024-02-26T05:31:34;2.20;99.90
20827;DHT22;10574;52.508;13.236;2024-02-26T05:34:01;2.20;99.90
20827;DHT22;10574;52.508;13.236;2024-02-26T05:36:29;2.20;99.90
20827;DHT22;10574;52.508;13.236;2024-02-26T05:39:02;2.20;99.90
20827;DHT22;10574;52.508;13.236;2024-02-26T05:41:30;2.30;99.90
20827;DHT22;10574;52.508;13.236;2024-02-26T05:43:59;2.30;99.90
20827;DHT22;10574;52.508;13.236;2024-02-26T05:46:27;2.40;99.90
20827;DHT22;10574;52.508;13.236;2024-02-26T05:48:55;2.40;99.90
20827;DHT22;10574;52.508;13.236;2024-02-26T05:51:22;2.40;99.90
20827;DHT22;10574;52.508;13.236;2024-02-26T05:53:50;2.40;99.90
20827;DHT22;10574;52.508;13.236;2024-02-26T05:56:21;2.50;99.90
20827;DHT22;10574;52.508;13.236;2024-02-26T05:58:50;2.50;99.90
20827;DHT22;10574;52.508;13.236;2024-02-26T06:01:19;2.50;99.90
20827;DHT22;10574;52.508;13.236;2024-02-26T06:03:47;2.50;99.90
20827;DHT22;10574;52.508;13.236;2024-02-26T06:06:15;2.50;99.90
20827;DHT22;10574;52.508;13.236;2024-02-26T06:08:43;2.50;99.90
20827;DHT22;10574;52.508;13.236;2024-02-26T06:11:11;2.50;99.90
20827;DHT22;10574;52.508;13.236;2024-02-26T06:13:39;2.50;99.90
20827;DHT22;10574;52.508;13.236;2024-02-26T06:16:08;2.50;99.90
20827;DHT22;10574;52.508;13.236;2024-02-26T06:18:36;2.50;99.90
20827;DHT22;10574;52.508;13.236;2024-02-26T06:21:04;2.60;99.90
20827;DHT22;10574;52.508;13.236;2024-02-26T06:23:32;2.60;99.90
20827;DHT22;10574;52.508;13.236;2024-02-26T06:26:02;2.60;99.90
20827;DHT22;10574;52.508;13.236;2024-02-26T06:28:30;2.60;99.90
20827;DHT22;10574;52.508;13.236;2024-02-26T06:31:00;2.70;99.90
20827;DHT22;10574;52.508;13.236;2024-02-26T06:33:27;2.70;99.90
20827;DHT22;10574;52.508;13.236;2024-02-26T06:35:56;2.70;99.90
20827;DHT22;10574;52.508;13.236;2024-02-26T06:38:25;2.80;99.90
20827;DHT22;10574;52.508;13.236;2024-02-26T06:40:52;3.00;99.90
20827;DHT22;10574;52.508;13.236;2024-02-26T06:43:22;3.20;99.90
20827;DHT22;10574;52.508;13.236;2024-02-26T06:45:50;3.30;99.90
20827;DHT22;10574;52.508;13.236;2024-02-26T06:48:18;3.50;99.90
20827;DHT22;10574;52.508;13.236;2024-02-26T06:50:46;3.70;99.90
20827;DHT22;10574;52.508;13.236;2024-02-26T06:53:14;3.70;99.90
20827;DHT22;10574;52.508;13.236;2024-02-26T06:55:43;3.80;99.90
20827;DHT22;10574;52.508;13.236;2024-02-26T06:58:13;3.80;99.90
20827;DHT22;10574;52.508;13.236;2024-02-26T07:00:40;3.80;99.90
20827;DHT22;10574;52.508;13.236;2024-02-26T07:03:08;3.80;99.90
20827;DHT22;10574;52.508;13.236;2024-02-26T07:05:37;3.80;99.90
20827;DHT22;10574;52.508;13.236;2024-02-26T07:08:05;3.70;99.90
20827;DHT22;10574;52.508;13.236;2024-02-26T07:10:33;3.70;99.90
20827;DHT22;10574;52.508;13.236;2024-02-26T07:13:01;3.80;99.90
20827;DHT22;10574;52.508;13.236;2024-02-26T07:15:29;3.80;99.90
20827;DHT22;10574;52.508;13.236;2024-02-26T07:17:57;3.90;99.90
20827;DHT22;10574;52.508;13.236;2024-02-26T07:20:26;4.00;99.90
20827;DHT22;10574;52.508;13.236;2024-02-26T07:22:56;4.00;99.90
20827;DHT22;10574;52.508;13.236;2024-02-26T07:25:24;4.10;99.90
20827;DHT22;10574;52.508;13.236;2024-02-26T07:27:52;4.30;99.90
20827;DHT22;10574;52.508;13.236;2024-02-26T07:30:20;4.40;99.90
20827;DHT22;10574;52.508;13.236;2024-02-26T07:32:48;4.50;99.90
20827;DHT22;10574;52.508;13.236;2024-02-26T07:35:15;4.60;99.90
20827;DHT22;10574;52.508;13.236;2024-02-26T07:37:44;4.70;99.90
20827;DHT22;10574;52.508;13.236;2024-02-26T07:40:12;4.80;99.90
20827;DHT22;10574;52.508;13.236;2024-02-26T07:42:40;4.90;99.90
20827;DHT22;10574;52.508;13.236;2024-02-26T07:45:08;4.90;99.90
20827;DHT22;10574;52.508;13.236;2024-02-26T07:47:36;5.10;99.90
20827;DHT22;10574;52.508;13.236;2024-02-26T07:50:06;5.20;99.90
20827;DHT22;10574;52.508;13.236;2024-02-26T07:52:35;5.40;99.90
20827;DHT22;10574;52.508;13.236;2024-02-26T07:55:02;5.60;99.90
20827;DHT22;10574;52.508;13.236;2024-02-26T07:57:32;5.70;99.90
20827;DHT22;10574;52.508;13.236;2024-02-26T08:00:02;5.80;99.90
20827;DHT22;10574;52.508;13.236;2024-02-26T08:02:30;5.90;99.90
20827;DHT22;10574;52.508;13.236;2024-02-26T08:04:57;6.00;99.90
20827;DHT22;10574;52.508;13.236;2024-02-26T08:07:25;6.00;99.90
20827;DHT22;10574;52.508;13.236;2024-02-26T08:09:53;6.00;99.90
20827;DHT22;10574;52.508;13.236;2024-02-26T08:12:20;6.10;99.90
20827;DHT22;10574;52.508;13.236;2024-02-26T08:14:48;6.20;99.90
20827;DHT22;10574;52.508;13.236;2024-02-26T08:17:16;6.20;99.90
20827;DHT22;10574;52.508;13.236;2024-02-26T08:19:44;6.30;99.90
20827;DHT22;10574;52.508;13.236;2024-02-26T08:22:12;6.30;99.90
20827;DHT22;10574;52.508;13.236;2024-02-26T08:24:42;6.40;99.90
20827;DHT22;10574;52.508;13.236;2024-02-26T08:27:10;6.50;99.90
20827;DHT22;10574;52.508;13.236;2024-02-26T08:29:38;6.70;99.90
20827;DHT22;10574;52.508;13.236;2024-02-26T08:32:06;6.80;99.90
20827;DHT22;10574;52.508;13.236;2024-02-26T08:34:34;6.90;99.90
20827;DHT22;10574;52.508;13.236;2024-02-26T08:37:02;7.10;99.90
20827;DHT22;10574;52.508;13.236;2024-02-26T08:39:29;7.10;99.90
20827;DHT22;10574;52.508;13.236;2024-02-26T08:41:57;7.20;99.90
20827;DHT22;10574;52.508;13.236;2024-02-26T08:44:25;7.30;99.90
20827;DHT22;10574;52.508;13.236;2024-02-26T08:46:53;7.40;99.90
20827;DHT22;10574;52.508;13.236;2024-02-26T08:49:20;7.50;99.90
20827;DHT22;10574;52.508;13.236;2024-02-26T08:51:50;7.50;99.90
20827;DHT22;10574;52.508;13.236;2024-02-26T08:54:18;7.60;99.90
20827;DHT22;10574;52.508;13.236;2024-02-26T08:56:45;7.70;99.90
20827;DHT22;10574;52.508;13.236;2024-02-26T08:59:13;7.80;99.90
20827;DHT22;10574;52.508;13.236;2024-02-26T09:01:42;8.00;99.90
20827;DHT22;10574;52.508;13.236;2024-02-26T09:04:10;8.20;99.90
20827;DHT22;10574;52.508;13.236;2024-02-26T09:06:38;8.30;99.90
20827;DHT22;10574;52.508;13.236;2024-02-26T09:09:06;8.40;99.90
20827;DHT22;10574;52.508;13.236;2024-02-26T09:11:34;8.50;99.90
20827;DHT22;10574;52.508;13.236;2024-02-26T09:14:02;8.40;99.90
20827;DHT22;10574;52.508;13.236;2024-02-26T09:16:30;8.40;99.90
20827;DHT22;10574;52.508;13.236;2024-02-26T09:18:58;8.50;99.90
20827;DHT22;10574;52.508;13.236;2024-02-26T09:21:26;8.50;99.90
20827;DHT22;10574;52.508;13.236;2024-02-26T09:23:54;8.50;99.90
20827;DHT22;10574;52.508;13.236;2024-02-26T09:26:22;8.60;99.90
20827;DHT22;10574;52.508;13.236;2024-02-26T09:28:49;8.70;99.90
20827;DHT22;10574;52.508;13.236;2024-02-26T09:31:18;8.70;99.90
20827;DHT22;10574;52.508;13.236;2024-02-26T09:33:47;8.80;99.90
20827;DHT22;10574;52.508;13.236;2024-02-26T09:36:15;8.90;99.90
20827;DHT22;10574;52.508;13.236;2024-02-26T09:38:42;8.90;99.90
20827;DHT22;10574;52.508;13.236;2024-02-26T09:41:14;8.90;99.90
20827;DHT22;10574;52.508;13.236;2024-02-26T09:43:44;9.00;99.90
20827;DHT22;10574;52.508;13.236;2024-02-26T09:46:15;9.10;99.90
20827;DHT22;10574;52.508;13.236;2024-02-26T09:48:45;9.20;99.90
20827;DHT22;10574;52.508;13.236;2024-02-26T09:51:15;9.40;99.90
20827;DHT22;10574;52.508;13.236;2024-02-26T09:53:44;9.40;99.90
20827;DHT22;10574;52.508;13.236;2024-02-26T09:56:14;9.50;99.90
20827;DHT22;10574;52.508;13.236;2024-02-26T09:58:42;9.50;99.90
20827;DHT22;10574;52.508;13.236;2024-02-26T10:01:16;9.50;99.90
20827;DHT22;10574;52.508;13.236;2024-02-26T10:03:44;9.40;99.90
20827;DHT22;10574;52.508;13.236;2024-02-26T10:06:12;9.60;99.90
20827;DHT22;10574;52.508;13.236;2024-02-26T10:08:40;9.40;99.90
20827;DHT22;10574;52.508;13.236;2024-02-26T10:11:09;9.40;99.90
20827;DHT22;10574;52.508;13.236;2024-02-26T10:13:37;9.60;99.90
20827;DHT22;10574;52.508;13.236;2024-02-26T10:16:05;9.70;99.90
20827;DHT22;10574;52.508;13.236;2024-02-26T10:18:49;9.80;99.90
20827;DHT22;10574;52.508;13.236;2024-02-26T10:21:21;9.90;99.90
20827;DHT22;10574;52.508;13.236;2024-02-26T10:23:49;9.90;99.90
20827;DHT22;10574;52.508;13.236;2024-02-26T10:26:17;10.00;99.90
20827;DHT22;10574;52.508;13.236;2024-02-26T10:28:46;10.00;99.90
20827;DHT22;10574;52.508;13.236;2024-02-26T10:31:14;10.00;99.90
20827;DHT22;10574;52.508;13.236;2024-02-26T10:33:43;10.10;99.90
20827;DHT22;10574;52.508;13.236;2024-02-26T10:36:11;10.30;99.90
20827;DHT22;10574;52.508;13.236;2024-02-26T10:38:39;10.30;99.90
20827;DHT22;10574;52.508;13.236;2024-02-26T10:41:26;10.40;99.90
20827;DHT22;10574;52.508;13.236;2024-02-26T10:43:54;10.50;99.90
20827;DHT22;10574;52.508;13.236;2024-02-26T10:46:22;10.60;99.90
20827;DHT22;10574;52.508;13.236;2024-02-26T10:48:50;10.70;99.90
20827;DHT22;10574;52.508;13.236;2024-02-26T10:51:20;10.70;99.90
20827;DHT22;10574;52.508;13.236;2024-02-26T10:53:50;10.80;99.90
20827;DHT22;10574;52.508;13.236;2024-02-26T10:56:20;10.80;99.90
20827;DHT22;10574;52.508;13.236;2024-02-26T10:58:51;11.00;99.90
20827;DHT22;10574;52.508;13.236;2024-02-26T11:01:19;11.10;99.90
20827;DHT22;10574;52.508;13.236;2024-02-26T11:03:52;11.00;99.90
20827;DHT22;10574;52.508;13.236;2024-02-26T11:06:22;11.00;99.90
20827;DHT22;10574;52.508;13.236;2024-02-26T11:08:50;10.90;99.90
20827;DHT22;10574;52.508;13.236;2024-02-26T11:11:19;11.00;99.90
20827;DHT22;10574;52.508;13.236;2024-02-26T11:13:48;11.00;99.90
20827;DHT22;10574;52.508;13.236;2024-02-26T11:16:22;11.10;99.90
20827;DHT22;10574;52.508;13.236;2024-02-26T11:18:52;11.20;99.90
20827;DHT22;10574;52.508;13.236;2024-02-26T11:21:22;11.30;99.90
20827;DHT22;10574;52.508;13.236;2024-02-26T11:23:51;11.30;99.90
20827;DHT22;10574;52.508;13.236;2024-02-26T11:26:20;11.30;99.90
20827;DHT22;10574;52.508;13.236;2024-02-26T11:28:48;10.90;99.90
20827;DHT22;10574;52.508;13.236;2024-02-26T11:31:17;10.90;99.90
20827;DHT22;10574;52.508;13.236;2024-02-26T11:33:47;10.80;99.90
20827;DHT22;10574;52.508;13.236;2024-02-26T11:36:17;10.90;99.90
20827;DHT22;10574;52.508;13.236;2024-02-26T11:38:45;11.20;99.90
20827;DHT22;10574;52.508;13.236;2024-02-26T11:41:15;11.30;99.90
20827;DHT22;10574;52.508;13.236;2024-02-26T11:44:01;11.40;99.90
20827;DHT22;10574;52.508;13.236;2024-02-26T11:46:31;11.50;99.90
20827;DHT22;10574;52.508;13.236;2024-02-26T11:49:03;11.20;99.90
20827;DHT22;10574;52.508;13.236;2024-02-26T11:51:35;11.30;99.90
20827;DHT22;10574;52.508;13.236;2024-02-26T11:54:02;11.50;99.90
20827;DHT22;10574;52.508;13.236;2024-02-26T11:56:33;11.30;99.90
20827;DHT22;10574;52.508;13.236;2024-02-26T11:59:03;11.40;99.90
20827;DHT22;10574;52.508;13.236;2024-02-26T12:01:46;11.40;99.90
20827;DHT22;10574;52.508;13.236;2024-02-26T12:04:28;11.50;99.90
20827;DHT22;10574;52.508;13.236;2024-02-26T12:06:57;11.40;99.90
20827;DHT22;10574;52.508;13.236;2024-02-26T12:09:42;11.40;99.90
20827;DHT22;10574;52.508;13.236;2024-02-26T12:12:13;11.50;99.90
20827;DHT22;10574;52.508;13.236;2024-02-26T12:14:41;11.60;99.90
20827;DHT22;10574;52.508;13.236;2024-02-26T12:17:18;11.60;99.90
20827;DHT22;10574;52.508;13.236;2024-02-26T12:19:43;11.50;99.90
20827;DHT22;10574;52.508;13.236;2024-02-26T12:22:14;11.60;99.90
20827;DHT22;10574;52.508;13.236;2024-02-26T12:24:43;11.60;99.90
20827;DHT22;10574;52.508;13.236;2024-02-26T12:27:11;11.40;99.90
20827;DHT22;10574;52.508;13.236;2024-02-26T12:29:40;11.40;99.90
20827;DHT22;10574;52.508;13.236;2024-02-26T12:32:07;11.30;99.90
20827;DHT22;10574;52.508;13.236;2024-02-26T12:34:35;11.30;99.90
20827;DHT22;10574;52.508;13.236;2024-02-26T12:37:04;11.30;99.90
20827;DHT22;10574;52.508;13.236;2024-02-26T12:39:33;11.50;99.90
20827;DHT22;10574;52.508;13.236;2024-02-26T12:42:01;11.40;99.90
20827;DHT22;10574;52.508;13.236;2024-02-26T12:44:34;11.60;99.90
20827;DHT22;10574;52.508;13.236;2024-02-26T12:47:04;11.80;99.90
20827;DHT22;10574;52.508;13.236;2024-02-26T12:49:32;11.90;99.90
20827;DHT22;10574;52.508;13.236;2024-02-26T12:52:00;11.90;99.90
20827;DHT22;10574;52.508;13.236;2024-02-26T12:54:33;11.60;99.90
20827;DHT22;10574;52.508;13.236;2024-02-26T12:57:02;11.50;99.90
20827;DHT22;10574;52.508;13.236;2024-02-26T12:59:32;11.60;99.90
20827;DHT22;10574;52.508;13.236;2024-02-26T13:02:01;11.70;99.90
20827;DHT22;10574;52.508;13.236;2024-02-26T13:04:30;11.60;99.90
20827;DHT22;10574;52.508;13.236;2024-02-26T13:06:58;11.60;99.90
20827;DHT22;10574;52.508;13.236;2024-02-26T13:09:31;11.60;99.90
20827;DHT22;10574;52.508;13.236;2024-02-26T13:11:58;11.80;99.90
20827;DHT22;10574;52.508;13.236;2024-02-26T13:14:26;11.90;99.90
20827;DHT22;10574;52.508;13.236;2024-02-26T13:16:59;11.90;99.90
20827;DHT22;10574;52.508;13.236;2024-02-26T13:19:27;11.70;99.90
20827;DHT22;10574;52.508;13.236;2024-02-26T13:21:55;11.70;99.90
20827;DHT22;10574;52.508;13.236;2024-02-26T13:24:23;11.60;99.90
20827;DHT22;10574;52.508;13.236;2024-02-26T13:26:55;11.50;99.90
20827;DHT22;10574;52.508;13.236;2024-02-26T13:29:23;11.60;99.90
20827;DHT22;10574;52.508;13.236;2024-02-26T13:31:58;11.70;99.90
20827;DHT22;10574;52.508;13.236;2024-02-26T13:34:28;11.70;99.90
20827;DHT22;10574;52.508;13.236;2024-02-26T13:36:57;11.70;99.90
20827;DHT22;10574;52.508;13.236;2024-02-26T13:39:26;11.80;99.90
20827;DHT22;10574;52.508;13.236;2024-02-26T13:41:54;11.90;99.90
20827;DHT22;10574;52.508;13.236;2024-02-26T13:44:24;11.80;99.90
20827;DHT22;10574;52.508;13.236;2024-02-26T13:46:51;11.80;99.90
20827;DHT22;10574;52.508;13.236;2024-02-26T13:49:19;11.80;99.90
20827;DHT22;10574;52.508;13.236;2024-02-26T13:51:47;11.60;99.90
20827;DHT22;10574;52.508;13.236;2024-02-26T13:54:14;11.70;99.90
20827;DHT22;10574;52.508;13.236;2024-02-26T13:56:42;11.70;99.30
20827;DHT22;10574;52.508;13.236;2024-02-26T13:59:10;11.70;98.90
20827;DHT22;10574;52.508;13.236;2024-02-26T14:01:38;11.80;98.00
20827;DHT22;10574;52.508;13.236;2024-02-26T14:04:06;11.70;97.10
20827;DHT22;10574;52.508;13.236;2024-02-26T14:06:35;11.60;97.40
20827;DHT22;10574;52.508;13.236;2024-02-26T14:09:03;11.60;97.60
20827;DHT22;10574;52.508;13.236;2024-02-26T14:11:32;11.50;97.20
20827;DHT22;10574;52.508;13.236;2024-02-26T14:14:01;11.60;98.10
20827;DHT22;10574;52.508;13.236;2024-02-26T14:16:28;11.70;97.50
20827;DHT22;10574;52.508;13.236;2024-02-26T14:18:56;11.60;97.60
20827;DHT22;10574;52.508;13.236;2024-02-26T14:21:24;11.50;98.00
20827;DHT22;10574;52.508;13.236;2024-02-26T14:23:53;11.50;98.10
20827;DHT22;10574;52.508;13.236;2024-02-26T14:26:23;11.40;98.00
20827;DHT22;10574;52.508;13.236;2024-02-26T14:28:51;11.50;98.60
20827;DHT22;10574;52.508;13.236;2024-02-26T14:31:19;11.40;98.50
20827;DHT22;10574;52.508;13.236;2024-02-26T14:33:47;11.40;98.90
20827;DHT22;10574;52.508;13.236;2024-02-26T14:36:15;11.50;99.30
20827;DHT22;10574;52.508;13.236;2024-02-26T14:38:43;11.50;99.40
20827;DHT22;10574;52.508;13.236;2024-02-26T14:41:10;11.60;99.70
20827;DHT22;10574;52.508;13.236;2024-02-26T14:43:38;11.50;99.90
20827;DHT22;10574;52.508;13.236;2024-02-26T14:46:06;11.40;99.90
20827;DHT22;10574;52.508;13.236;2024-02-26T14:48:33;11.40;99.90
20827;DHT22;10574;52.508;13.236;2024-02-26T14:51:02;11.40;99.90
20827;DHT22;10574;52.508;13.236;2024-02-26T14:53:31;11.30;99.90
20827;DHT22;10574;52.508;13.236;2024-02-26T14:55:59;11.30;99.90
20827;DHT22;10574;52.508;13.236;2024-02-26T14:58:26;11.20;99.90
20827;DHT22;10574;52.508;13.236;2024-02-26T15:00:54;11.20;99.90
20827;DHT22;10574;52.508;13.236;2024-02-26T15:03:22;11.10;99.90
20827;DHT22;10574;52.508;13.236;2024-02-26T15:05:50;11.10;99.90
20827;DHT22;10574;52.508;13.236;2024-02-26T15:08:17;11.10;99.90
20827;DHT22;10574;52.508;13.236;2024-02-26T15:10:45;11.00;99.90
20827;DHT22;10574;52.508;13.236;2024-02-26T15:13:16;11.00;99.90
20827;DHT22;10574;52.508;13.236;2024-02-26T15:15:44;11.00;99.90
20827;DHT22;10574;52.508;13.236;2024-02-26T15:18:12;11.00;99.90
20827;DHT22;10574;52.508;13.236;2024-02-26T15:20:42;11.00;99.90
20827;DHT22;10574;52.508;13.236;2024-02-26T15:23:10;11.00;99.90
20827;DHT22;10574;52.508;13.236;2024-02-26T15:25:39;10.90;99.90
20827;DHT22;10574;52.508;13.236;2024-02-26T15:28:08;10.90;99.90
20827;DHT22;10574;52.508;13.236;2024-02-26T15:30:37;10.80;99.90
20827;DHT22;10574;52.508;13.236;2024-02-26T15:33:05;10.80;99.90